sensor_id;sensor_type;location;lat;lon;timestamp;temperature;humidity
5932;DHT22;2991;49.368;8.528;2022-07-22T00:01:50;31.00;82.40
5932;DHT22;2991;49.368;8.528;2022-07-22T00:04:16;31.00;82.40
5932;DHT22;2991;49.368;8.528;2022-07-22T00:06:42;31.00;82.40
5932;DHT22;2991;49.368;8.528;2022-07-22T00:09:07;31.00;82.40
5932;DHT22;2991;49.368;8.528;2022-07-22T00:11:34;31.00;82.40
5932;DHT22;2991;49.368;8.528;2022-07-22T00:14:00;31.00;82.50
5932;DHT22;2991;49.368;8.528;2022-07-22T00:16:26;30.90;82.50
5932;DHT22;2991;49.368;8.528;2022-07-22T00:18:51;31.00;82.70
5932;DHT22;2991;49.368;8.528;2022-07-22T00:21:18;31.00;82.70
5932;DHT22;2991;49.368;8.528;2022-07-22T00:23:43;31.00;83.40
5932;DHT22;2991;49.368;8.528;2022-07-22T00:26:12;30.90;82.70
5932;DHT22;2991;49.368;8.528;2022-07-22T00:28:40;30.90;82.70
5932;DHT22;2991;49.368;8.528;2022-07-22T00:31:06;30.90;82.80
5932;DHT22;2991;49.368;8.528;2022-07-22T00:33:34;30.90;82.80
5932;DHT22;2991;49.368;8.528;2022-07-22T00:36:00;30.90;82.80
5932;DHT22;2991;49.368;8.528;2022-07-22T00:38:26;30.90;82.80
5932;DHT22;2991;49.368;8.528;2022-07-22T00:40:51;30.90;82.80
5932;DHT22;2991;49.368;8.528;2022-07-22T00:43:17;30.90;82.70
5932;DHT22;2991;49.368;8.528;2022-07-22T00:45:43;30.90;82.60
5932;DHT22;2991;49.368;8.528;2022-07-22T00:48:08;30.90;82.60
5932;DHT22;2991;49.368;8.528;2022-07-22T00:50:39;30.90;82.60
5932;DHT22;2991;49.368;8.528;2022-07-22T00:53:07;30.90;82.60
5932;DHT22;2991;49.368;8.528;2022-07-22T00:55:34;30.90;82.50
5932;DHT22;2991;49.368;8.528;2022-07-22T00:58:02;30.80;82.40
5932;DHT22;2991;49.368;8.528;2022-07-22T01:00:28;30.80;82.40
5932;DHT22;2991;49.368;8.528;2022-07-22T01:02:53;30.80;82.40
5932;DHT22;2991;49.368;8.528;2022-07-22T01:05:31;30.80;82.40
5932;DHT22;2991;49.368;8.528;2022-07-22T01:07:59;30.70;82.30
5932;DHT22;2991;49.368;8.528;2022-07-22T01:17:16;30.80;82.60
5932;DHT22;2991;49.368;8.528;2022-07-22T01:22:28;30.70;82.80
5932;DHT22;2991;49.368;8.528;2022-07-22T01:24:58;30.70;82.80
5932;DHT22;2991;49.368;8.528;2022-07-22T01:27:24;30.70;82.90
5932;DHT22;2991;49.368;8.528;2022-07-22T01:29:52;30.70;82.90
5932;DHT22;2991;49.368;8.528;2022-07-22T01:32:22;30.70;82.80
5932;DHT22;2991;49.368;8.528;2022-07-22T01:34:57;30.70;83.00
5932;DHT22;2991;49.368;8.528;2022-07-22T01:37:25;30.70;83.00
5932;DHT22;2991;49.368;8.528;2022-07-22T01:39:54;30.70;83.00
5932;DHT22;2991;49.368;8.528;2022-07-22T01:42:19;30.70;82.80
5932;DHT22;2991;49.368;8.528;2022-07-22T01:44:54;30.60;82.60
5932;DHT22;2991;49.368;8.528;2022-07-22T01:47:31;30.60;82.60
5932;DHT22;2991;49.368;8.528;2022-07-22T01:49:59;30.70;83.30
5932;DHT22;2991;49.368;8.528;2022-07-22T01:52:29;30.60;82.60
5932;DHT22;2991;49.368;8.528;2022-07-22T01:54:58;30.60;82.60
5932;DHT22;2991;49.368;8.528;2022-07-22T01:57:28;30.60;82.50
5932;DHT22;2991;49.368;8.528;2022-07-22T02:00:03;30.60;82.50
5932;DHT22;2991;49.368;8.528;2022-07-22T02:02:45;30.60;82.50
5932;DHT22;2991;49.368;8.528;2022-07-22T02:05:34;30.60;82.50
5932;DHT22;2991;49.368;8.528;2022-07-22T02:08:28;30.60;82.50
5932;DHT22;2991;49.368;8.528;2022-07-22T02:11:14;30.60;82.40
5932;DHT22;2991;49.368;8.528;2022-07-22T02:13:53;30.60;82.50
5932;DHT22;2991;49.368;8.528;2022-07-22T02:16:40;30.50;82.50
5932;DHT22;2991;49.368;8.528;2022-07-22T02:19:08;30.50;82.50
5932;DHT22;2991;49.368;8.528;2022-07-22T02:21:44;30.50;82.50
5932;DHT22;2991;49.368;8.528;2022-07-22T02:27:23;30.50;82.60
5932;DHT22;2991;49.368;8.528;2022-07-22T02:30:04;30.50;82.60
5932;DHT22;2991;49.368;8.528;2022-07-22T02:32:36;30.50;82.60
5932;DHT22;2991;49.368;8.528;2022-07-22T02:35:09;30.50;82.60
5932;DHT22;2991;49.368;8.528;2022-07-22T02:37:53;30.40;82.60
5932;DHT22;2991;49.368;8.528;2022-07-22T02:40:39;30.50;82.60
5932;DHT22;2991;49.368;8.528;2022-07-22T02:43:16;30.50;82.60
5932;DHT22;2991;49.368;8.528;2022-07-22T02:45:54;30.50;82.60
5932;DHT22;2991;49.368;8.528;2022-07-22T02:48:45;30.40;82.50
5932;DHT22;2991;49.368;8.528;2022-07-22T02:51:16;30.40;82.50
5932;DHT22;2991;49.368;8.528;2022-07-22T02:53:42;30.40;82.50
5932;DHT22;2991;49.368;8.528;2022-07-22T02:56:15;30.40;82.40
5932;DHT22;2991;49.368;8.528;2022-07-22T02:58:41;30.40;82.50
5932;DHT22;2991;49.368;8.528;2022-07-22T03:01:08;30.40;82.50
5932;DHT22;2991;49.368;8.528;2022-07-22T03:03:36;30.40;82.30
5932;DHT22;2991;49.368;8.528;2022-07-22T03:08:56;30.40;82.30
5932;DHT22;2991;49.368;8.528;2022-07-22T03:12:21;30.30;82.30
5932;DHT22;2991;49.368;8.528;2022-07-22T03:14:56;30.30;82.30
5932;DHT22;2991;49.368;8.528;2022-07-22T03:17:34;30.30;82.50
5932;DHT22;2991;49.368;8.528;2022-07-22T03:20:14;30.30;82.60
5932;DHT22;2991;49.368;8.528;2022-07-22T03:23:17;30.30;82.50
5932;DHT22;2991;49.368;8.528;2022-07-22T03:25:57;30.30;82.50
5932;DHT22;2991;49.368;8.528;2022-07-22T03:28:25;30.30;82.50
5932;DHT22;2991;49.368;8.528;2022-07-22T03:30:54;30.20;82.50
5932;DHT22;2991;49.368;8.528;2022-07-22T03:37:33;30.20;82.50
5932;DHT22;2991;49.368;8.528;2022-07-22T03:40:20;30.20;82.50
5932;DHT22;2991;49.368;8.528;2022-07-22T03:42:45;30.20;82.50
5932;DHT22;2991;49.368;8.528;2022-07-22T03:45:11;30.20;82.40
5932;DHT22;2991;49.368;8.528;2022-07-22T03:47:36;30.20;82.40
5932;DHT22;2991;49.368;8.528;2022-07-22T03:50:02;30.20;82.30
5932;DHT22;2991;49.368;8.528;2022-07-22T03:52:29;30.20;82.30
5932;DHT22;2991;49.368;8.528;2022-07-22T03:54:54;30.20;82.30
5932;DHT22;2991;49.368;8.528;2022-07-22T03:57:20;30.20;82.30
5932;DHT22;2991;49.368;8.528;2022-07-22T03:59:46;30.10;82.20
5932;DHT22;2991;49.368;8.528;2022-07-22T04:02:11;30.20;82.30
5932;DHT22;2991;49.368;8.528;2022-07-22T04:04:37;30.20;82.30
5932;DHT22;2991;49.368;8.528;2022-07-22T04:07:03;30.20;82.30
5932;DHT22;2991;49.368;8.528;2022-07-22T04:09:28;30.10;82.10
5932;DHT22;2991;49.368;8.528;2022-07-22T04:11:54;30.10;82.20
5932;DHT22;2991;49.368;8.528;2022-07-22T04:14:19;30.10;82.30
5932;DHT22;2991;49.368;8.528;2022-07-22T04:16:45;30.10;82.30
5932;DHT22;2991;49.368;8.528;2022-07-22T04:19:11;30.10;82.50
5932;DHT22;2991;49.368;8.528;2022-07-22T04:21:37;30.10;82.40
5932;DHT22;2991;49.368;8.528;2022-07-22T04:24:03;30.10;82.50
5932;DHT22;2991;49.368;8.528;2022-07-22T04:26:29;30.10;82.50
5932;DHT22;2991;49.368;8.528;2022-07-22T04:28:54;30.10;82.50
5932;DHT22;2991;49.368;8.528;2022-07-22T04:31:20;30.10;82.60
5932;DHT22;2991;49.368;8.528;2022-07-22T04:33:45;30.10;82.60
5932;DHT22;2991;49.368;8.528;2022-07-22T04:36:11;30.00;82.60
5932;DHT22;2991;49.368;8.528;2022-07-22T04:38:36;30.00;83.20
5932;DHT22;2991;49.368;8.528;2022-07-22T04:41:02;30.00;82.50
5932;DHT22;2991;49.368;8.528;2022-07-22T04:43:28;30.00;82.50
5932;DHT22;2991;49.368;8.528;2022-07-22T04:45:55;30.00;82.40
5932;DHT22;2991;49.368;8.528;2022-07-22T04:48:20;30.00;82.50
5932;DHT22;2991;49.368;8.528;2022-07-22T04:50:46;30.00;82.40
5932;DHT22;2991;49.368;8.528;2022-07-22T04:53:11;30.00;82.30
5932;DHT22;2991;49.368;8.528;2022-07-22T04:55:37;30.00;82.30
5932;DHT22;2991;49.368;8.528;2022-07-22T04:58:02;30.00;82.40
5932;DHT22;2991;49.368;8.528;2022-07-22T05:00:28;29.90;82.30
5932;DHT22;2991;49.368;8.528;2022-07-22T05:02:54;29.90;82.30
5932;DHT22;2991;49.368;8.528;2022-07-22T05:05:20;29.90;82.30
5932;DHT22;2991;49.368;8.528;2022-07-22T05:07:45;29.90;82.30
5932;DHT22;2991;49.368;8.528;2022-07-22T05:10:11;29.90;82.30
5932;DHT22;2991;49.368;8.528;2022-07-22T05:12:36;29.90;82.30
5932;DHT22;2991;49.368;8.528;2022-07-22T05:15:03;29.90;82.40
5932;DHT22;2991;49.368;8.528;2022-07-22T05:17:29;29.90;82.50
5932;DHT22;2991;49.368;8.528;2022-07-22T05:19:54;29.90;82.50
5932;DHT22;2991;49.368;8.528;2022-07-22T05:22:20;29.90;82.50
5932;DHT22;2991;49.368;8.528;2022-07-22T05:24:48;29.90;82.60
5932;DHT22;2991;49.368;8.528;2022-07-22T05:30:34;29.90;82.50
5932;DHT22;2991;49.368;8.528;2022-07-22T05:33:06;29.80;82.80
5932;DHT22;2991;49.368;8.528;2022-07-22T05:35:36;29.90;82.80
5932;DHT22;2991;49.368;8.528;2022-07-22T05:38:04;29.80;82.70
5932;DHT22;2991;49.368;8.528;2022-07-22T05:40:31;29.80;82.60
5932;DHT22;2991;49.368;8.528;2022-07-22T05:42:58;29.80;82.50
5932;DHT22;2991;49.368;8.528;2022-07-22T05:45:23;29.80;82.50
5932;DHT22;2991;49.368;8.528;2022-07-22T05:47:49;29.80;82.40
5932;DHT22;2991;49.368;8.528;2022-07-22T05:50:14;29.80;82.50
5932;DHT22;2991;49.368;8.528;2022-07-22T05:52:40;29.80;82.40
5932;DHT22;2991;49.368;8.528;2022-07-22T05:55:09;29.80;82.40
5932;DHT22;2991;49.368;8.528;2022-07-22T06:00:51;29.80;82.30
5932;DHT22;2991;49.368;8.528;2022-07-22T06:03:24;29.80;83.10
5932;DHT22;2991;49.368;8.528;2022-07-22T06:09:12;29.80;82.40
5932;DHT22;2991;49.368;8.528;2022-07-22T06:11:37;29.70;82.30
5932;DHT22;2991;49.368;8.528;2022-07-22T06:14:03;29.70;82.40
5932;DHT22;2991;49.368;8.528;2022-07-22T06:16:40;29.70;82.60
5932;DHT22;2991;49.368;8.528;2022-07-22T06:19:19;29.70;82.50
5932;DHT22;2991;49.368;8.528;2022-07-22T06:21:45;29.70;82.70
5932;DHT22;2991;49.368;8.528;2022-07-22T06:24:10;29.70;82.70
5932;DHT22;2991;49.368;8.528;2022-07-22T06:26:36;29.70;82.80
5932;DHT22;2991;49.368;8.528;2022-07-22T06:29:02;29.70;82.80
5932;DHT22;2991;49.368;8.528;2022-07-22T06:31:27;29.70;82.70
5932;DHT22;2991;49.368;8.528;2022-07-22T06:33:53;29.70;82.60
5932;DHT22;2991;49.368;8.528;2022-07-22T06:36:20;29.70;82.70
5932;DHT22;2991;49.368;8.528;2022-07-22T06:38:48;29.70;82.70
5932;DHT22;2991;49.368;8.528;2022-07-22T06:41:17;29.70;82.60
5932;DHT22;2991;49.368;8.528;2022-07-22T06:43:46;29.80;82.50
5932;DHT22;2991;49.368;8.528;2022-07-22T06:46:12;29.80;82.40
5932;DHT22;2991;49.368;8.528;2022-07-22T06:48:44;29.90;82.40
5932;DHT22;2991;49.368;8.528;2022-07-22T06:51:10;29.90;82.30
5932;DHT22;2991;49.368;8.528;2022-07-22T06:53:36;29.90;82.30
5932;DHT22;2991;49.368;8.528;2022-07-22T06:56:01;29.90;82.10
5932;DHT22;2991;49.368;8.528;2022-07-22T06:58:27;30.00;82.20
5932;DHT22;2991;49.368;8.528;2022-07-22T07:00:53;30.10;82.10
5932;DHT22;2991;49.368;8.528;2022-07-22T07:03:18;30.10;82.00
5932;DHT22;2991;49.368;8.528;2022-07-22T07:05:44;30.20;82.60
5932;DHT22;2991;49.368;8.528;2022-07-22T07:08:09;30.20;81.90
5932;DHT22;2991;49.368;8.528;2022-07-22T07:10:35;30.30;82.10
5932;DHT22;2991;49.368;8.528;2022-07-22T07:13:01;30.40;82.00
5932;DHT22;2991;49.368;8.528;2022-07-22T07:15:27;30.50;81.80
5932;DHT22;2991;49.368;8.528;2022-07-22T07:17:54;30.60;81.80
5932;DHT22;2991;49.368;8.528;2022-07-22T07:20:21;30.60;81.60
5932;DHT22;2991;49.368;8.528;2022-07-22T07:22:47;30.70;81.60
5932;DHT22;2991;49.368;8.528;2022-07-22T07:25:13;30.70;81.40
5932;DHT22;2991;49.368;8.528;2022-07-22T07:27:38;30.80;81.40
5932;DHT22;2991;49.368;8.528;2022-07-22T07:30:05;30.80;81.30
5932;DHT22;2991;49.368;8.528;2022-07-22T07:32:31;30.90;81.20
5932;DHT22;2991;49.368;8.528;2022-07-22T07:34:57;30.90;81.20
5932;DHT22;2991;49.368;8.528;2022-07-22T07:37:22;31.00;81.10
5932;DHT22;2991;49.368;8.528;2022-07-22T07:39:48;31.00;81.00
5932;DHT22;2991;49.368;8.528;2022-07-22T07:42:14;31.00;80.90
5932;DHT22;2991;49.368;8.528;2022-07-22T07:44:39;31.00;81.00
5932;DHT22;2991;49.368;8.528;2022-07-22T07:47:05;31.00;80.90
5932;DHT22;2991;49.368;8.528;2022-07-22T07:49:31;31.10;81.10
5932;DHT22;2991;49.368;8.528;2022-07-22T07:51:56;31.10;81.10
5932;DHT22;2991;49.368;8.528;2022-07-22T07:54:22;31.10;81.00
5932;DHT22;2991;49.368;8.528;2022-07-22T07:56:47;31.10;80.90
5932;DHT22;2991;49.368;8.528;2022-07-22T07:59:13;31.10;80.80
5932;DHT22;2991;49.368;8.528;2022-07-22T08:01:39;31.20;80.90
5932;DHT22;2991;49.368;8.528;2022-07-22T08:04:04;31.20;80.80
5932;DHT22;2991;49.368;8.528;2022-07-22T08:06:30;31.20;81.00
5932;DHT22;2991;49.368;8.528;2022-07-22T08:08:56;31.20;80.80
5932;DHT22;2991;49.368;8.528;2022-07-22T08:11:21;31.20;80.80
5932;DHT22;2991;49.368;8.528;2022-07-22T08:13:47;31.20;80.80
5932;DHT22;2991;49.368;8.528;2022-07-22T08:16:12;31.20;80.80
5932;DHT22;2991;49.368;8.528;2022-07-22T08:18:38;31.20;80.80
5932;DHT22;2991;49.368;8.528;2022-07-22T08:21:04;31.20;80.80
5932;DHT22;2991;49.368;8.528;2022-07-22T08:23:29;31.20;80.90
5932;DHT22;2991;49.368;8.528;2022-07-22T08:25:55;31.20;80.90
5932;DHT22;2991;49.368;8.528;2022-07-22T08:28:21;31.20;80.90
5932;DHT22;2991;49.368;8.528;2022-07-22T08:30:46;31.20;80.90
5932;DHT22;2991;49.368;8.528;2022-07-22T08:33:12;31.20;80.90
5932;DHT22;2991;49.368;8.528;2022-07-22T08:35:37;31.20;80.90
5932;DHT22;2991;49.368;8.528;2022-07-22T08:38:03;31.20;80.90
5932;DHT22;2991;49.368;8.528;2022-07-22T08:40:32;31.20;80.80
5932;DHT22;2991;49.368;8.528;2022-07-22T08:43:02;31.20;80.80
5932;DHT22;2991;49.368;8.528;2022-07-22T08:45:32;31.20;80.80
5932;DHT22;2991;49.368;8.528;2022-07-22T08:48:03;31.30;80.80
5932;DHT22;2991;49.368;8.528;2022-07-22T08:50:31;31.30;80.90
5932;DHT22;2991;49.368;8.528;2022-07-22T08:52:56;31.20;80.80
5932;DHT22;2991;49.368;8.528;2022-07-22T08:55:23;31.30;80.80
5932;DHT22;2991;49.368;8.528;2022-07-22T08:57:54;31.30;80.90
5932;DHT22;2991;49.368;8.528;2022-07-22T09:00:42;31.30;80.80
5932;DHT22;2991;49.368;8.528;2022-07-22T09:03:27;31.30;81.00
5932;DHT22;2991;49.368;8.528;2022-07-22T09:05:53;31.30;81.00
5932;DHT22;2991;49.368;8.528;2022-07-22T09:08:21;31.30;81.00
5932;DHT22;2991;49.368;8.528;2022-07-22T09:10:47;31.30;81.00
5932;DHT22;2991;49.368;8.528;2022-07-22T09:13:14;31.30;81.00
5932;DHT22;2991;49.368;8.528;2022-07-22T09:15:54;31.30;81.00
5932;DHT22;2991;49.368;8.528;2022-07-22T09:18:20;31.30;81.00
5932;DHT22;2991;49.368;8.528;2022-07-22T09:20:46;31.30;81.10
5932;DHT22;2991;49.368;8.528;2022-07-22T09:23:18;31.30;81.20
5932;DHT22;2991;49.368;8.528;2022-07-22T09:25:46;31.30;81.20
5932;DHT22;2991;49.368;8.528;2022-07-22T09:28:15;31.30;81.20
5932;DHT22;2991;49.368;8.528;2022-07-22T09:30:51;31.30;81.20
5932;DHT22;2991;49.368;8.528;2022-07-22T09:33:17;31.30;81.20
5932;DHT22;2991;49.368;8.528;2022-07-22T09:35:44;31.30;81.20
5932;DHT22;2991;49.368;8.528;2022-07-22T09:38:12;31.30;81.20
5932;DHT22;2991;49.368;8.528;2022-07-22T09:40:42;31.30;81.20
5932;DHT22;2991;49.368;8.528;2022-07-22T09:43:11;31.30;81.20
5932;DHT22;2991;49.368;8.528;2022-07-22T09:45:48;31.30;81.20
5932;DHT22;2991;49.368;8.528;2022-07-22T09:48:19;31.30;81.10
5932;DHT22;2991;49.368;8.528;2022-07-22T09:50:46;31.30;81.20
5932;DHT22;2991;49.368;8.528;2022-07-22T09:53:12;31.30;81.20
5932;DHT22;2991;49.368;8.528;2022-07-22T09:55:39;31.30;81.10
5932;DHT22;2991;49.368;8.528;2022-07-22T09:58:06;31.40;81.20
5932;DHT22;2991;49.368;8.528;2022-07-22T10:00:34;31.40;81.20
5932;DHT22;2991;49.368;8.528;2022-07-22T10:03:01;31.40;81.20
5932;DHT22;2991;49.368;8.528;2022-07-22T10:05:30;31.40;81.20
5932;DHT22;2991;49.368;8.528;2022-07-22T10:07:57;31.40;81.30
5932;DHT22;2991;49.368;8.528;2022-07-22T10:10:25;31.40;81.20
5932;DHT22;2991;49.368;8.528;2022-07-22T10:12:53;31.40;81.20
5932;DHT22;2991;49.368;8.528;2022-07-22T10:15:19;31.50;81.30
5932;DHT22;2991;49.368;8.528;2022-07-22T10:17:57;31.40;81.30
5932;DHT22;2991;49.368;8.528;2022-07-22T10:20:29;31.50;81.30
5932;DHT22;2991;49.368;8.528;2022-07-22T10:23:00;31.50;81.30
5932;DHT22;2991;49.368;8.528;2022-07-22T10:25:28;31.50;81.40
5932;DHT22;2991;49.368;8.528;2022-07-22T10:27:58;31.50;81.30
5932;DHT22;2991;49.368;8.528;2022-07-22T10:30:33;31.50;81.40
5932;DHT22;2991;49.368;8.528;2022-07-22T10:33:13;31.50;81.40
5932;DHT22;2991;49.368;8.528;2022-07-22T10:38:09;31.50;81.50
5932;DHT22;2991;49.368;8.528;2022-07-22T10:40:56;31.50;81.50
5932;DHT22;2991;49.368;8.528;2022-07-22T10:43:29;31.50;81.40
5932;DHT22;2991;49.368;8.528;2022-07-22T10:46:02;31.50;81.50
5932;DHT22;2991;49.368;8.528;2022-07-22T10:51:11;31.60;81.50
5932;DHT22;2991;49.368;8.528;2022-07-22T10:53:58;31.60;81.50
5932;DHT22;2991;49.368;8.528;2022-07-22T10:59:09;31.60;81.50
5932;DHT22;2991;49.368;8.528;2022-07-22T11:02:16;31.60;81.50
5932;DHT22;2991;49.368;8.528;2022-07-22T11:05:08;31.60;81.40
5932;DHT22;2991;49.368;8.528;2022-07-22T11:08:11;31.60;81.50
5932;DHT22;2991;49.368;8.528;2022-07-22T11:14:32;31.60;81.50
5932;DHT22;2991;49.368;8.528;2022-07-22T11:20:33;31.70;81.60
5932;DHT22;2991;49.368;8.528;2022-07-22T11:33:12;31.80;81.70
5932;DHT22;2991;49.368;8.528;2022-07-22T11:36:12;31.70;81.70
5932;DHT22;2991;49.368;8.528;2022-07-22T11:42:44;31.80;81.70
5932;DHT22;2991;49.368;8.528;2022-07-22T11:52:53;31.80;82.00
5932;DHT22;2991;49.368;8.528;2022-07-22T11:55:45;31.90;81.70
5932;DHT22;2991;49.368;8.528;2022-07-22T12:01:12;31.90;81.70
5932;DHT22;2991;49.368;8.528;2022-07-22T12:03:49;31.90;81.70
5932;DHT22;2991;49.368;8.528;2022-07-22T12:06:45;31.90;81.70
5932;DHT22;2991;49.368;8.528;2022-07-22T12:09:36;31.90;81.70
5932;DHT22;2991;49.368;8.528;2022-07-22T12:12:38;31.90;81.60
5932;DHT22;2991;49.368;8.528;2022-07-22T12:15:07;32.00;82.40
5932;DHT22;2991;49.368;8.528;2022-07-22T12:17:37;31.90;81.60
5932;DHT22;2991;49.368;8.528;2022-07-22T12:20:14;32.00;81.70
5932;DHT22;2991;49.368;8.528;2022-07-22T12:22:53;32.00;81.70
5932;DHT22;2991;49.368;8.528;2022-07-22T12:28:54;32.10;81.70
5932;DHT22;2991;49.368;8.528;2022-07-22T12:31:51;32.00;81.90
5932;DHT22;2991;49.368;8.528;2022-07-22T12:34:31;32.10;81.70
5932;DHT22;2991;49.368;8.528;2022-07-22T12:37:01;32.10;81.70
5932;DHT22;2991;49.368;8.528;2022-07-22T12:39:39;32.10;81.70
5932;DHT22;2991;49.368;8.528;2022-07-22T12:42:17;32.30;81.40
5932;DHT22;2991;49.368;8.528;2022-07-22T12:47:49;32.20;82.40
5932;DHT22;2991;49.368;8.528;2022-07-22T12:55:56;32.20;81.70
5932;DHT22;2991;49.368;8.528;2022-07-22T12:58:30;32.20;81.70
5932;DHT22;2991;49.368;8.528;2022-07-22T13:01:00;32.20;81.70
5932;DHT22;2991;49.368;8.528;2022-07-22T13:03:28;32.20;81.70
5932;DHT22;2991;49.368;8.528;2022-07-22T13:06:02;32.20;81.70
5932;DHT22;2991;49.368;8.528;2022-07-22T13:08:29;32.20;81.60
5932;DHT22;2991;49.368;8.528;2022-07-22T13:10:55;32.20;81.60
5932;DHT22;2991;49.368;8.528;2022-07-22T13:13:28;32.20;81.60
5932;DHT22;2991;49.368;8.528;2022-07-22T13:15:54;32.30;81.60
5932;DHT22;2991;49.368;8.528;2022-07-22T13:18:22;32.30;82.40
5932;DHT22;2991;49.368;8.528;2022-07-22T13:20:56;32.20;81.60
5932;DHT22;2991;49.368;8.528;2022-07-22T13:23:22;32.30;81.60
5932;DHT22;2991;49.368;8.528;2022-07-22T13:25:51;32.30;81.60
5932;DHT22;2991;49.368;8.528;2022-07-22T13:28:17;32.30;81.60
5932;DHT22;2991;49.368;8.528;2022-07-22T13:30:52;32.30;81.60
5932;DHT22;2991;49.368;8.528;2022-07-22T13:33:39;32.30;81.60
5932;DHT22;2991;49.368;8.528;2022-07-22T13:36:07;32.40;81.70
5932;DHT22;2991;49.368;8.528;2022-07-22T13:39:00;32.40;81.80
5932;DHT22;2991;49.368;8.528;2022-07-22T13:41:58;32.40;81.70
5932;DHT22;2991;49.368;8.528;2022-07-22T13:44:30;32.40;81.80
5932;DHT22;2991;49.368;8.528;2022-07-22T13:46:59;32.40;81.80
5932;DHT22;2991;49.368;8.528;2022-07-22T13:49:28;32.40;81.80
5932;DHT22;2991;49.368;8.528;2022-07-22T13:51:56;32.40;81.70
5932;DHT22;2991;49.368;8.528;2022-07-22T13:54:23;32.40;81.80
5932;DHT22;2991;49.368;8.528;2022-07-22T13:56:49;32.40;81.80
5932;DHT22;2991;49.368;8.528;2022-07-22T13:59:16;32.40;81.70
5932;DHT22;2991;49.368;8.528;2022-07-22T14:01:42;32.40;81.70
5932;DHT22;2991;49.368;8.528;2022-07-22T14:04:09;32.40;81.70
5932;DHT22;2991;49.368;8.528;2022-07-22T14:06:41;32.40;81.60
5932;DHT22;2991;49.368;8.528;2022-07-22T14:09:09;32.40;81.60
5932;DHT22;2991;49.368;8.528;2022-07-22T14:11:38;32.40;81.60
5932;DHT22;2991;49.368;8.528;2022-07-22T14:14:04;32.40;81.60
5932;DHT22;2991;49.368;8.528;2022-07-22T14:16:35;32.40;81.60
5932;DHT22;2991;49.368;8.528;2022-07-22T14:19:06;32.40;81.60
5932;DHT22;2991;49.368;8.528;2022-07-22T14:21:37;32.40;81.60
5932;DHT22;2991;49.368;8.528;2022-07-22T14:24:05;32.40;81.60
5932;DHT22;2991;49.368;8.528;2022-07-22T14:26:35;32.40;81.60
5932;DHT22;2991;49.368;8.528;2022-07-22T14:29:01;32.40;81.60
5932;DHT22;2991;49.368;8.528;2022-07-22T14:31:36;32.50;81.70
5932;DHT22;2991;49.368;8.528;2022-07-22T14:34:02;32.50;81.60
5932;DHT22;2991;49.368;8.528;2022-07-22T14:42:37;32.50;81.50
5932;DHT22;2991;49.368;8.528;2022-07-22T14:45:09;32.50;81.60
5932;DHT22;2991;49.368;8.528;2022-07-22T14:47:38;32.50;81.70
5932;DHT22;2991;49.368;8.528;2022-07-22T14:50:05;32.50;81.60
5932;DHT22;2991;49.368;8.528;2022-07-22T14:52:33;32.50;81.60
5932;DHT22;2991;49.368;8.528;2022-07-22T14:55:08;32.50;81.60
5932;DHT22;2991;49.368;8.528;2022-07-22T14:57:38;32.50;81.60
5932;DHT22;2991;49.368;8.528;2022-07-22T15:00:04;32.50;81.60
5932;DHT22;2991;49.368;8.528;2022-07-22T15:02:30;32.50;81.60
5932;DHT22;2991;49.368;8.528;2022-07-22T15:04:56;32.50;81.70
5932;DHT22;2991;49.368;8.528;2022-07-22T15:07:21;32.50;81.70
5932;DHT22;2991;49.368;8.528;2022-07-22T15:09:47;32.50;81.70
5932;DHT22;2991;49.368;8.528;2022-07-22T15:12:12;32.50;81.70
5932;DHT22;2991;49.368;8.528;2022-07-22T15:14:38;32.50;81.70
5932;DHT22;2991;49.368;8.528;2022-07-22T15:17:03;32.50;81.70
5932;DHT22;2991;49.368;8.528;2022-07-22T15:19:29;32.50;81.60
5932;DHT22;2991;49.368;8.528;2022-07-22T15:21:54;32.50;81.60
5932;DHT22;2991;49.368;8.528;2022-07-22T15:24:20;32.50;82.30
5932;DHT22;2991;49.368;8.528;2022-07-22T15:26:46;32.50;81.60
5932;DHT22;2991;49.368;8.528;2022-07-22T15:29:11;32.50;81.60
5932;DHT22;2991;49.368;8.528;2022-07-22T15:31:37;32.50;81.60
5932;DHT22;2991;49.368;8.528;2022-07-22T15:34:03;32.60;81.60
5932;DHT22;2991;49.368;8.528;2022-07-22T15:36:28;32.60;81.60
5932;DHT22;2991;49.368;8.528;2022-07-22T15:38:54;32.60;81.60
5932;DHT22;2991;49.368;8.528;2022-07-22T15:41:20;32.60;81.70
5932;DHT22;2991;49.368;8.528;2022-07-22T15:43:46;32.60;81.60
5932;DHT22;2991;49.368;8.528;2022-07-22T15:46:11;32.60;81.70
5932;DHT22;2991;49.368;8.528;2022-07-22T15:48:37;32.60;81.70
5932;DHT22;2991;49.368;8.528;2022-07-22T15:51:05;32.60;81.70
5932;DHT22;2991;49.368;8.528;2022-07-22T15:53:31;32.60;81.80
5932;DHT22;2991;49.368;8.528;2022-07-22T15:55:57;32.50;81.70
5932;DHT22;2991;49.368;8.528;2022-07-22T15:58:23;32.60;81.70
5932;DHT22;2991;49.368;8.528;2022-07-22T16:01:07;32.60;81.70
5932;DHT22;2991;49.368;8.528;2022-07-22T16:03:33;32.50;81.40
5932;DHT22;2991;49.368;8.528;2022-07-22T16:05:58;32.60;81.90
5932;DHT22;2991;49.368;8.528;2022-07-22T16:08:25;32.60;83.40
5932;DHT22;2991;49.368;8.528;2022-07-22T16:10:52;32.60;83.60
5932;DHT22;2991;49.368;8.528;2022-07-22T16:13:18;32.60;83.30
5932;DHT22;2991;49.368;8.528;2022-07-22T16:15:44;32.60;82.90
5932;DHT22;2991;49.368;8.528;2022-07-22T16:18:09;32.60;83.10
5932;DHT22;2991;49.368;8.528;2022-07-22T16:20:37;32.60;81.40
5932;DHT22;2991;49.368;8.528;2022-07-22T16:23:03;32.60;81.80
5932;DHT22;2991;49.368;8.528;2022-07-22T16:25:29;32.70;82.70
5932;DHT22;2991;49.368;8.528;2022-07-22T16:27:54;32.70;82.00
5932;DHT22;2991;49.368;8.528;2022-07-22T16:30:20;32.70;82.60
5932;DHT22;2991;49.368;8.528;2022-07-22T16:32:46;32.80;82.80
5932;DHT22;2991;49.368;8.528;2022-07-22T16:35:12;32.80;83.00
5932;DHT22;2991;49.368;8.528;2022-07-22T16:37:37;32.80;82.90
5932;DHT22;2991;49.368;8.528;2022-07-22T16:40:03;32.80;82.80
5932;DHT22;2991;49.368;8.528;2022-07-22T16:42:29;32.80;82.60
5932;DHT22;2991;49.368;8.528;2022-07-22T16:44:55;32.80;82.60
5932;DHT22;2991;49.368;8.528;2022-07-22T16:47:20;32.80;82.60
5932;DHT22;2991;49.368;8.528;2022-07-22T16:49:46;32.80;81.10
5932;DHT22;2991;49.368;8.528;2022-07-22T16:52:11;32.80;80.80
5932;DHT22;2991;49.368;8.528;2022-07-22T16:54:37;32.80;81.40
5932;DHT22;2991;49.368;8.528;2022-07-22T16:57:02;32.90;83.10
5932;DHT22;2991;49.368;8.528;2022-07-22T16:59:28;32.90;83.20
5932;DHT22;2991;49.368;8.528;2022-07-22T17:01:54;32.90;83.30
5932;DHT22;2991;49.368;8.528;2022-07-22T17:04:19;32.80;83.50
5932;DHT22;2991;49.368;8.528;2022-07-22T17:06:45;32.80;83.70
5932;DHT22;2991;49.368;8.528;2022-07-22T17:09:11;32.80;83.90
5932;DHT22;2991;49.368;8.528;2022-07-22T17:11:37;32.80;83.70
5932;DHT22;2991;49.368;8.528;2022-07-22T17:14:03;32.80;83.80
5932;DHT22;2991;49.368;8.528;2022-07-22T17:16:29;32.80;83.70
5932;DHT22;2991;49.368;8.528;2022-07-22T17:18:55;32.80;83.90
5932;DHT22;2991;49.368;8.528;2022-07-22T17:21:20;32.80;83.90
5932;DHT22;2991;49.368;8.528;2022-07-22T17:23:46;32.80;83.70
5932;DHT22;2991;49.368;8.528;2022-07-22T17:26:11;32.80;83.90
5932;DHT22;2991;49.368;8.528;2022-07-22T17:28:37;32.80;83.90
5932;DHT22;2991;49.368;8.528;2022-07-22T17:31:06;32.80;84.10
5932;DHT22;2991;49.368;8.528;2022-07-22T17:33:31;32.80;83.90
5932;DHT22;2991;49.368;8.528;2022-07-22T17:35:57;32.80;83.80
5932;DHT22;2991;49.368;8.528;2022-07-22T17:38:22;32.80;83.80
5932;DHT22;2991;49.368;8.528;2022-07-22T17:40:48;32.80;83.60
5932;DHT22;2991;49.368;8.528;2022-07-22T17:43:14;32.70;83.70
5932;DHT22;2991;49.368;8.528;2022-07-22T17:45:41;32.70;83.50